Airfield :
LOGIN :

Register | Disclaimer

   EN    FR    IT 

 










Legend :    VFR   Marginal VFR   IFR   Intensive IFR   Very Intensive IFR
Visi :
Ceiling :
>= 8 km
>= 3000ft
5 to 8 km
1000 to 3000 ft
1500m to 5 km
500 to 1000 ft
800 to 1500m
200 to 500 ft
< 800m
< 200 ft
Symbols :   Thunderstorms  Fog  Heavy snow  Heavy precipitations  Wind > 20 kt
SIGMETs :     Misc.  Thunderstorms  Icing  Turbulence  Mountain Waves  Volcanic Ashes






- Airport Elevation : 726 ft
- IATA code : DIJ


LFSD - Dijon

CURRENT METAR :
  • 291100Z AUTO 18005KT 9999 FEW027/// SCT043/// BKN068/// ///CB 12/09 Q1002

EXPIRED METARs :
  • 291030Z AUTO VRB03KT 9999 -RA SCT044/// OVC052/// ///CB 12/09 Q1002
  • 291000Z AUTO VRB02KT 9999 FEW015/// BKN043/// OVC050/// ///CB 11/10 Q1002
  • 290930Z AUTO VRB02KT 9999 BKN007/// OVC011/// ///TCU 11/09 Q1002
  • 290900Z AUTO VRB02KT 9999 -RA BKN008/// OVC014/// ///CB 10/09 Q1002
  • 290830Z AUTO VRB03KT 9000 R35/1200D -RA BKN008/// BKN015/// OVC021/// ///TCU 10/09 Q1002

Expired Forecast.



MET'MAP, your aeronautical weather chart ! - Copyright ORBIFLY December 2007 - Disclaimer

ORBIFLY MET'MAP TEAM :

Programming & Development : Alexandra Zaïnal
Original concept : Baudouin d'Aumeries
Technical & hardware support : Manuel Goepfert
Assistance : Marc-Olivier Méhu




SOURCES & CREDITS :

   NOAA